createdAt,value
2022-12-18T00:01:29.578Z,2.55
2022-12-18T00:03:57.100Z,2.67
2022-12-18T00:06:25.984Z,2.65
2022-12-18T00:08:53.268Z,2.67
2022-12-18T00:11:22.858Z,2.58
2022-12-18T00:13:50.930Z,2.66
2022-12-18T00:16:23.650Z,2.68
2022-12-18T00:18:53.350Z,2.54
2022-12-18T00:21:21.474Z,2.63
2022-12-18T00:23:49.582Z,2.48
2022-12-18T00:26:20.537Z,2.50
2022-12-18T00:28:47.801Z,2.47
2022-12-18T00:31:20.801Z,2.43
2022-12-18T00:33:49.073Z,2.40
2022-12-18T00:36:23.085Z,2.44
2022-12-18T00:38:52.747Z,2.23
2022-12-18T00:41:39.920Z,2.39
2022-12-18T00:44:08.749Z,2.23
2022-12-18T00:46:35.666Z,2.05
2022-12-18T00:49:03.564Z,1.98
2022-12-18T00:51:30.466Z,1.88
2022-12-18T00:53:57.341Z,1.84
2022-12-18T00:56:25.299Z,1.79
2022-12-18T00:58:53.437Z,1.71
2022-12-18T01:01:20.968Z,1.59
2022-12-18T01:03:47.990Z,1.56
2022-12-18T01:06:17.799Z,1.52
2022-12-18T01:08:45.412Z,1.51
2022-12-18T01:11:23.162Z,1.43
2022-12-18T01:13:50.347Z,1.43
2022-12-18T01:16:18.337Z,1.42
2022-12-18T01:18:45.789Z,1.38
2022-12-18T01:21:15.841Z,1.41
2022-12-18T01:23:43.333Z,1.37
2022-12-18T01:26:13.216Z,1.42
2022-12-18T01:28:41.148Z,1.36
2022-12-18T01:31:34.529Z,1.32
2022-12-18T01:34:04.506Z,1.33
2022-12-18T01:36:34.359Z,1.30
2022-12-18T01:39:11.886Z,1.29
2022-12-18T01:42:12.126Z,1.28
2022-12-18T01:45:06.202Z,1.32
2022-12-18T01:47:53.909Z,1.28
2022-12-18T01:50:28.738Z,1.29
2022-12-18T01:53:05.628Z,1.26
2022-12-18T01:55:40.942Z,1.31
2022-12-18T01:58:08.421Z,1.35
2022-12-18T02:00:38.103Z,1.32
2022-12-18T02:03:05.536Z,1.26
2022-12-18T02:05:46.266Z,1.35
2022-12-18T02:08:43.928Z,1.34
2022-12-18T02:11:38.955Z,1.37
2022-12-18T02:14:33.355Z,1.34
2022-12-18T02:17:19.934Z,1.27
2022-12-18T02:20:06.648Z,1.29
2022-12-18T02:22:43.358Z,1.29
2022-12-18T02:25:51.416Z,1.38
2022-12-18T02:28:21.994Z,1.29
2022-12-18T02:30:52.478Z,1.26
2022-12-18T02:33:22.040Z,1.15
2022-12-18T02:35:54.098Z,1.10
2022-12-18T02:38:21.948Z,0.98
2022-12-18T02:40:56.980Z,0.96
2022-12-18T02:43:25.052Z,0.84
2022-12-18T02:45:57.316Z,0.82
2022-12-18T02:48:35.148Z,0.74
2022-12-18T02:51:02.096Z,0.63
2022-12-18T02:53:46.442Z,0.59
2022-12-18T02:56:20.025Z,0.56
2022-12-18T02:59:34.974Z,0.56
2022-12-18T03:02:14.136Z,0.58
2022-12-18T03:04:48.569Z,0.66
2022-12-18T03:07:24.532Z,0.58
2022-12-18T03:09:59.478Z,0.59
2022-12-18T03:12:40.763Z,0.59
2022-12-18T03:15:43.659Z,0.61
2022-12-18T03:18:21.410Z,0.65
2022-12-18T03:20:53.423Z,0.69
2022-12-18T03:23:27.174Z,0.70
2022-12-18T03:25:57.824Z,0.58
2022-12-18T03:28:31.595Z,0.55
2022-12-18T03:31:04.013Z,0.56
2022-12-18T03:33:47.510Z,0.51
2022-12-18T03:36:15.786Z,0.55
2022-12-18T03:38:42.884Z,0.52
2022-12-18T03:41:25.430Z,0.52
2022-12-18T03:44:13.933Z,0.54
2022-12-18T03:46:46.525Z,0.55
2022-12-18T03:49:18.085Z,0.72
2022-12-18T03:52:01.092Z,0.63
2022-12-18T03:54:31.239Z,0.59
2022-12-18T03:57:12.991Z,0.57
2022-12-18T03:59:41.142Z,0.58
2022-12-18T04:02:10.472Z,0.58
2022-12-18T04:04:40.745Z,0.48
2022-12-18T04:07:08.669Z,0.53
2022-12-18T04:09:40.355Z,0.42
2022-12-18T04:12:09.899Z,0.38
2022-12-18T04:14:36.948Z,0.42
2022-12-18T04:17:07.374Z,0.31
2022-12-18T04:19:34.569Z,0.32
2022-12-18T04:22:02.967Z,0.25
2022-12-18T04:24:35.288Z,0.28
2022-12-18T04:27:08.850Z,0.25
2022-12-18T04:29:42.372Z,0.23
2022-12-18T04:32:10.071Z,0.23
2022-12-18T04:34:38.013Z,0.18
2022-12-18T04:37:05.473Z,0.17
2022-12-18T04:39:33.285Z,0.08
2022-12-18T04:42:05.887Z,-0.08
2022-12-18T04:44:32.847Z,-0.10
2022-12-18T04:46:59.630Z,-0.19
2022-12-18T04:49:26.482Z,-0.24
2022-12-18T04:51:54.662Z,-0.31
2022-12-18T04:54:22.179Z,-0.37
2022-12-18T04:56:49.881Z,-0.44
2022-12-18T04:59:16.921Z,-0.48
2022-12-18T05:01:44.029Z,-0.53
2022-12-18T05:04:11.474Z,-0.59
2022-12-18T05:06:38.421Z,-0.55
2022-12-18T05:09:05.337Z,-0.55
2022-12-18T05:11:32.862Z,-0.60
2022-12-18T05:13:59.662Z,-0.65
2022-12-18T05:16:26.524Z,-0.58
2022-12-18T05:18:53.563Z,-0.57
2022-12-18T05:21:20.364Z,-0.71
2022-12-18T05:23:47.306Z,-0.75
2022-12-18T05:26:18.360Z,-0.73
2022-12-18T05:28:46.101Z,-0.79
2022-12-18T05:31:13.084Z,-0.71
2022-12-18T05:33:40.278Z,-0.77
2022-12-18T05:36:09.003Z,-0.76
2022-12-18T05:38:37.640Z,-0.74
2022-12-18T05:41:06.165Z,-0.71
2022-12-18T05:43:36.045Z,-0.61
2022-12-18T05:46:07.509Z,-0.55
2022-12-18T05:48:34.986Z,-0.36
2022-12-18T05:51:08.119Z,-0.47
2022-12-18T05:53:36.411Z,-0.44
2022-12-18T05:56:05.779Z,-0.31
2022-12-18T05:58:33.696Z,-0.23
2022-12-18T06:01:08.550Z,-0.22
2022-12-18T06:03:35.554Z,-0.18
2022-12-18T06:06:02.984Z,-0.20
2022-12-18T06:08:29.990Z,-0.17
2022-12-18T06:10:56.822Z,-0.16
2022-12-18T06:13:23.746Z,-0.16
2022-12-18T06:15:50.662Z,-0.12
2022-12-18T06:18:17.493Z,-0.13
2022-12-18T06:20:44.314Z,-0.07
2022-12-18T06:23:11.197Z,-0.07
2022-12-18T06:25:39.654Z,-0.09
2022-12-18T06:28:06.697Z,-0.21
2022-12-18T06:30:33.486Z,-0.14
2022-12-18T06:33:00.305Z,-0.12
2022-12-18T06:35:27.193Z,-0.15
2022-12-18T06:37:54.173Z,-0.18
2022-12-18T06:40:21.275Z,-0.22
2022-12-18T06:42:48.072Z,-0.24
2022-12-18T06:45:17.668Z,-0.23
2022-12-18T06:47:44.801Z,-0.34
2022-12-18T06:50:13.205Z,-0.30
2022-12-18T06:52:41.371Z,-0.18
2022-12-18T06:55:09.943Z,-0.12
2022-12-18T06:57:36.824Z,-0.13
2022-12-18T07:00:05.480Z,-0.10
2022-12-18T07:02:32.568Z,-0.10
2022-12-18T07:04:59.707Z,-0.12
2022-12-18T07:07:26.565Z,-0.22
2022-12-18T07:09:53.396Z,-0.20
2022-12-18T07:12:20.414Z,-0.15
2022-12-18T07:14:47.250Z,-0.24
2022-12-18T07:17:14.213Z,-0.28
2022-12-18T07:19:41.010Z,-0.31
2022-12-18T07:22:07.788Z,-0.26
2022-12-18T07:24:35.672Z,-0.42
2022-12-18T07:27:02.997Z,-0.42
2022-12-18T07:29:29.942Z,-0.43
2022-12-18T07:31:56.880Z,-0.43
2022-12-18T07:34:23.783Z,-0.42
2022-12-18T07:36:50.550Z,-0.38
2022-12-18T07:39:17.319Z,-0.39
2022-12-18T07:41:47.576Z,-0.37
2022-12-18T07:44:16.506Z,-0.32
2022-12-18T07:46:43.278Z,-0.26
2022-12-18T07:49:10.117Z,-0.19
2022-12-18T07:51:37.148Z,-0.09
2022-12-18T07:54:04.322Z,-0.07
2022-12-18T07:56:31.678Z,-0.02
2022-12-18T07:59:00.276Z,0.13
2022-12-18T08:01:27.596Z,-0.10
2022-12-18T08:03:54.837Z,-0.18
2022-12-18T08:06:23.772Z,-0.08
2022-12-18T08:08:55.794Z,-0.07
2022-12-18T08:11:25.064Z,-0.10
2022-12-18T08:13:52.588Z,-0.08
2022-12-18T08:16:20.145Z,-0.10
2022-12-18T08:18:47.839Z,-0.10
2022-12-18T08:21:24.168Z,-0.13
2022-12-18T08:23:52.856Z,-0.10
2022-12-18T08:26:20.986Z,-0.09
2022-12-18T08:28:48.190Z,0.01
2022-12-18T08:31:15.183Z,0.02
2022-12-18T08:33:42.820Z,-0.04
2022-12-18T08:36:11.264Z,-0.04
2022-12-18T08:38:38.282Z,-0.06
2022-12-18T08:41:10.585Z,0.01
2022-12-18T08:43:55.956Z,0.17
2022-12-18T08:46:24.896Z,0.30
2022-12-18T08:48:52.984Z,0.30
2022-12-18T08:51:20.243Z,0.37
2022-12-18T08:53:47.811Z,0.30
2022-12-18T08:56:15.580Z,0.24
2022-12-18T08:58:43.053Z,0.42
2022-12-18T09:01:11.919Z,0.42
2022-12-18T09:03:40.232Z,0.51
2022-12-18T09:06:07.990Z,0.61
2022-12-18T09:08:34.923Z,0.82
2022-12-18T09:11:01.852Z,0.93
2022-12-18T09:13:28.776Z,1.00
2022-12-18T09:15:57.038Z,1.15
2022-12-18T09:18:24.795Z,1.17
2022-12-18T09:20:54.119Z,1.11
2022-12-18T09:23:22.127Z,1.12
2022-12-18T09:25:49.425Z,1.12
2022-12-18T09:28:22.052Z,1.17
2022-12-18T09:30:50.462Z,1.23
2022-12-18T09:33:18.440Z,1.24
2022-12-18T09:35:46.906Z,1.30
2022-12-18T09:38:17.051Z,1.43
2022-12-18T09:40:46.484Z,1.66
2022-12-18T09:43:20.646Z,2.07
2022-12-18T09:45:55.235Z,2.33
2022-12-18T09:48:29.422Z,2.52
2022-12-18T09:51:03.488Z,2.17
2022-12-18T09:53:36.043Z,2.08
2022-12-18T09:56:13.433Z,1.94
2022-12-18T09:58:48.964Z,2.06
2022-12-18T10:01:21.281Z,2.15
2022-12-18T10:03:48.833Z,2.05
2022-12-18T10:06:38.176Z,1.88
2022-12-18T10:09:38.135Z,1.87
2022-12-18T10:12:14.902Z,1.65
2022-12-18T10:15:01.007Z,1.59
2022-12-18T10:17:52.692Z,1.65
2022-12-18T10:20:42.532Z,1.61
2022-12-18T10:23:27.453Z,1.73
2022-12-18T10:26:02.304Z,1.82
2022-12-18T10:28:31.257Z,1.83
2022-12-18T10:30:58.261Z,1.85
2022-12-18T10:33:30.660Z,1.91
2022-12-18T10:35:57.544Z,2.01
2022-12-18T10:38:31.417Z,2.01
2022-12-18T10:41:01.147Z,2.01
2022-12-18T10:43:34.242Z,2.15
2022-12-18T10:46:21.794Z,2.03
2022-12-18T10:48:48.667Z,2.04
2022-12-18T10:51:31.730Z,2.03
2022-12-18T10:54:01.716Z,1.91
2022-12-18T10:56:32.375Z,1.98
2022-12-18T10:59:05.913Z,2.20
2022-12-18T11:01:55.235Z,2.29
2022-12-18T11:04:31.323Z,2.24
2022-12-18T11:07:02.834Z,2.14
2022-12-18T11:09:37.792Z,2.13
2022-12-18T11:12:19.420Z,2.21
2022-12-18T11:14:54.874Z,2.18
2022-12-18T11:17:36.907Z,2.25
2022-12-18T11:20:08.259Z,2.29
2022-12-18T11:22:37.665Z,2.23
2022-12-18T11:28:03.601Z,2.29
2022-12-18T11:30:33.455Z,2.32
2022-12-18T11:33:09.672Z,2.16
2022-12-18T11:35:43.325Z,2.33
2022-12-18T11:38:22.002Z,2.57
2022-12-18T11:40:57.515Z,2.61
2022-12-18T11:43:43.493Z,2.48
2022-12-18T11:46:19.642Z,2.55
2022-12-18T11:49:07.680Z,2.85
2022-12-18T11:52:11.118Z,2.85
2022-12-18T11:54:38.064Z,2.64
2022-12-18T11:57:23.185Z,2.65
2022-12-18T12:00:16.041Z,2.88
2022-12-18T12:03:04.061Z,2.72
2022-12-18T12:05:58.265Z,2.87
2022-12-18T12:08:57.829Z,2.82
2022-12-18T12:12:12.183Z,2.94
2022-12-18T12:14:50.923Z,2.94
2022-12-18T12:17:44.235Z,2.95
2022-12-18T12:20:28.516Z,3.07
2022-12-18T12:23:16.398Z,3.09
2022-12-18T12:25:50.745Z,3.16
2022-12-18T12:28:40.484Z,2.78
2022-12-18T12:31:45.628Z,2.81
2022-12-18T12:34:14.942Z,2.83
2022-12-18T12:36:53.738Z,2.82
2022-12-18T12:39:29.347Z,2.81
2022-12-18T12:42:15.541Z,2.69
2022-12-18T12:44:52.756Z,2.81
2022-12-18T12:47:32.298Z,2.88
2022-12-18T12:50:04.733Z,3.05
2022-12-18T12:52:44.543Z,3.08
2022-12-18T12:55:20.168Z,3.19
2022-12-18T12:58:21.070Z,3.16
2022-12-18T13:01:24.178Z,2.90
2022-12-18T13:04:06.381Z,2.92
2022-12-18T13:06:57.009Z,2.90
2022-12-18T13:09:24.759Z,2.89
2022-12-18T13:12:10.039Z,2.97
2022-12-18T13:14:39.900Z,2.75
2022-12-18T13:17:30.188Z,2.90
2022-12-18T13:20:12.196Z,2.86
2022-12-18T13:22:45.207Z,2.60
2022-12-18T13:25:36.865Z,2.69
2022-12-18T13:28:09.693Z,2.75
2022-12-18T13:30:36.703Z,2.79
2022-12-18T13:33:15.281Z,2.63
2022-12-18T13:35:53.898Z,2.85
2022-12-18T13:38:33.645Z,2.76
2022-12-18T13:41:18.659Z,2.75
2022-12-18T13:43:50.307Z,2.73
2022-12-18T13:46:42.701Z,2.70
2022-12-18T13:49:15.466Z,2.65
2022-12-18T13:51:49.330Z,2.68
2022-12-18T13:54:22.147Z,2.66
2022-12-18T13:56:50.104Z,2.73
2022-12-18T13:59:27.506Z,2.68
2022-12-18T14:02:02.999Z,2.59
2022-12-18T14:04:36.777Z,2.47
2022-12-18T14:07:23.039Z,2.54
2022-12-18T14:10:12.085Z,2.56
2022-12-18T14:12:57.618Z,2.46
2022-12-18T14:15:27.718Z,2.36
2022-12-18T14:18:01.184Z,2.32
2022-12-18T14:20:33.723Z,2.30
2022-12-18T14:23:01.670Z,2.36
2022-12-18T14:25:31.135Z,2.46
2022-12-18T14:28:15.553Z,2.43
2022-12-18T14:30:45.116Z,2.34
2022-12-18T14:33:17.088Z,2.14
2022-12-18T14:36:06.770Z,2.17
2022-12-18T14:38:41.056Z,2.12
2022-12-18T14:41:16.239Z,2.03
2022-12-18T14:43:49.092Z,1.94
2022-12-18T14:46:38.099Z,1.88
2022-12-18T14:49:20.018Z,1.83
2022-12-18T14:51:52.664Z,1.76
2022-12-18T14:54:21.458Z,1.71
2022-12-18T14:56:58.880Z,1.83
2022-12-18T14:59:28.181Z,1.70
2022-12-18T15:01:55.059Z,1.62
2022-12-18T15:04:42.065Z,1.51
2022-12-18T15:07:11.445Z,1.39
2022-12-18T15:09:40.601Z,1.38
2022-12-18T15:12:24.334Z,1.35
2022-12-18T15:14:51.190Z,1.29
2022-12-18T15:17:23.232Z,1.18
2022-12-18T15:19:54.601Z,1.12
2022-12-18T15:22:28.776Z,0.99
2022-12-18T15:24:57.678Z,0.95
2022-12-18T15:27:37.166Z,0.88
2022-12-18T15:30:09.970Z,0.92
2022-12-18T15:32:43.181Z,0.91
2022-12-18T15:35:10.103Z,0.87
2022-12-18T15:37:37.052Z,0.77
2022-12-18T15:40:04.843Z,0.67
2022-12-18T15:42:50.177Z,0.55
2022-12-18T15:45:17.464Z,0.49
2022-12-18T15:47:45.855Z,0.58
2022-12-18T15:50:12.724Z,0.74
2022-12-18T15:52:47.764Z,0.63
2022-12-18T15:55:35.645Z,0.58
2022-12-18T15:58:03.652Z,0.49
2022-12-18T16:00:30.798Z,0.67
2022-12-18T16:02:57.831Z,0.72
2022-12-18T16:05:25.518Z,0.56
2022-12-18T16:07:52.335Z,0.39
2022-12-18T16:10:19.239Z,0.33
2022-12-18T16:12:46.635Z,0.31
2022-12-18T16:15:18.451Z,0.27
2022-12-18T16:17:49.152Z,0.20
2022-12-18T16:20:22.059Z,0.30
2022-12-18T16:22:50.558Z,0.32
2022-12-18T16:25:23.798Z,0.16
2022-12-18T16:27:51.497Z,0.14
2022-12-18T16:30:21.644Z,0.14
2022-12-18T16:32:48.688Z,0.17
2022-12-18T16:35:17.418Z,0.11
2022-12-18T16:37:44.876Z,0.02
2022-12-18T16:40:14.482Z,-0.04
2022-12-18T16:42:42.906Z,-0.01
2022-12-18T16:45:12.530Z,0.07
2022-12-18T16:47:39.466Z,0.10
2022-12-18T16:50:07.418Z,0.04
2022-12-18T16:52:35.184Z,-0.03
2022-12-18T16:55:02.207Z,-0.09
2022-12-18T16:57:29.207Z,0.02
2022-12-18T16:59:59.912Z,0.05
2022-12-18T17:02:33.971Z,0.01
2022-12-18T17:05:01.286Z,-0.02
2022-12-18T17:07:28.941Z,-0.09
2022-12-18T17:09:56.350Z,0.13
2022-12-18T17:12:23.894Z,0.15
2022-12-18T17:14:50.733Z,0.19
2022-12-18T17:17:21.418Z,0.13
2022-12-18T17:19:49.269Z,0.02
2022-12-18T17:22:16.181Z,-0.03
2022-12-18T17:24:43.052Z,0.04
2022-12-18T17:27:09.889Z,-0.09
2022-12-18T17:29:39.136Z,-0.06
2022-12-18T17:32:08.098Z,-0.06
2022-12-18T17:34:34.900Z,-0.06
2022-12-18T17:37:01.709Z,-0.02
2022-12-18T17:39:30.829Z,-0.08
2022-12-18T17:41:59.819Z,-0.13
2022-12-18T17:44:27.024Z,-0.15
2022-12-18T17:46:57.393Z,-0.24
2022-12-18T17:49:25.671Z,-0.20
2022-12-18T17:51:54.181Z,-0.15
2022-12-18T17:54:21.131Z,-0.20
2022-12-18T17:56:47.991Z,-0.18
2022-12-18T17:59:14.979Z,-0.32
2022-12-18T18:01:45.099Z,-0.23
2022-12-18T18:04:12.797Z,-0.27
2022-12-18T18:06:39.752Z,0.13
2022-12-18T18:09:16.110Z,0.02
2022-12-18T18:12:03.325Z,-0.07
2022-12-18T18:14:30.571Z,0.02
2022-12-18T18:16:57.374Z,0.09
2022-12-18T18:19:33.075Z,0.07
2022-12-18T18:22:00.138Z,-0.12
2022-12-18T18:24:27.261Z,-0.27
2022-12-18T18:26:55.850Z,-0.33
2022-12-18T18:29:26.539Z,-0.38
2022-12-18T18:31:54.906Z,-0.42
2022-12-18T18:34:24.554Z,-0.25
2022-12-18T18:36:51.767Z,-0.30
2022-12-18T18:39:19.638Z,-0.23
2022-12-18T18:41:47.995Z,-0.20
2022-12-18T18:44:16.893Z,-0.31
2022-12-18T18:46:44.196Z,-0.27
2022-12-18T18:49:11.671Z,-0.12
2022-12-18T18:51:40.135Z,-0.23
2022-12-18T18:54:06.970Z,-0.14
2022-12-18T18:56:56.391Z,-0.25
2022-12-18T18:59:21.500Z,-0.32
2022-12-18T19:01:56.271Z,-0.31
2022-12-18T19:04:23.166Z,-0.46
2022-12-18T19:06:50.013Z,-0.46
2022-12-18T19:09:17.640Z,-0.32
2022-12-18T19:12:03.190Z,-0.13
2022-12-18T19:14:30.312Z,-0.27
2022-12-18T19:16:57.238Z,-0.37
2022-12-18T19:19:25.455Z,-0.26
2022-12-18T19:21:52.550Z,-0.25
2022-12-18T19:24:22.288Z,-0.11
2022-12-18T19:26:49.344Z,0.02
2022-12-18T19:29:16.299Z,-0.02
2022-12-18T19:31:43.271Z,-0.14
2022-12-18T19:34:10.280Z,-0.20
2022-12-18T19:36:39.039Z,-0.22
2022-12-18T19:39:17.221Z,-0.07
2022-12-18T19:41:44.517Z,-0.16
2022-12-18T19:44:13.956Z,-0.24
2022-12-18T19:46:42.381Z,-0.41
2022-12-18T19:49:10.963Z,-0.44
2022-12-18T19:51:38.832Z,-0.44
2022-12-18T19:54:05.724Z,-0.25
2022-12-18T19:56:34.832Z,-0.24
2022-12-18T19:59:03.445Z,0.02
2022-12-18T20:01:31.231Z,0.01
2022-12-18T20:03:59.719Z,-0.04
2022-12-18T20:06:30.287Z,-0.12
2022-12-18T20:09:00.552Z,-0.17
2022-12-18T20:11:29.338Z,-0.22
2022-12-18T20:13:56.870Z,-0.36
2022-12-18T20:16:24.130Z,-0.21
2022-12-18T20:18:51.402Z,-0.24
2022-12-18T20:21:19.391Z,-0.25
2022-12-18T20:23:46.448Z,-0.13
2022-12-18T20:26:13.673Z,-0.14
2022-12-18T20:28:40.827Z,-0.17
2022-12-18T20:31:10.575Z,-0.34
2022-12-18T20:33:41.564Z,-0.42
2022-12-18T20:36:21.243Z,-0.35
2022-12-18T20:38:49.750Z,-0.30
2022-12-18T20:41:19.269Z,-0.25
2022-12-18T20:43:46.151Z,-0.20
2022-12-18T20:46:14.972Z,-0.18
2022-12-18T20:48:42.905Z,-0.23
2022-12-18T20:51:12.497Z,-0.22
2022-12-18T20:53:40.262Z,-0.18
2022-12-18T20:56:20.117Z,-0.23
2022-12-18T20:58:55.045Z,-0.17
2022-12-18T21:01:23.080Z,-0.19
2022-12-18T21:03:50.896Z,-0.18
2022-12-18T21:06:20.292Z,-0.17
2022-12-18T21:08:47.190Z,-0.16
2022-12-18T21:11:38.728Z,-0.24
2022-12-18T21:14:10.040Z,-0.30
2022-12-18T21:16:37.554Z,-0.22
2022-12-18T21:19:04.444Z,-0.22
2022-12-18T21:21:36.545Z,-0.36
2022-12-18T21:24:06.971Z,-0.42
2022-12-18T21:26:34.246Z,-0.45
2022-12-18T21:29:04.373Z,-0.32
2022-12-18T21:31:34.019Z,-0.38
2022-12-18T21:34:02.379Z,-0.37
2022-12-18T21:36:30.954Z,-0.38
2022-12-18T21:38:59.055Z,-0.35
2022-12-18T21:41:44.770Z,-0.48
2022-12-18T21:44:15.203Z,-0.49
2022-12-18T21:46:44.239Z,-0.68
2022-12-18T21:49:14.558Z,-0.77
2022-12-18T21:51:41.646Z,-0.79
2022-12-18T21:54:08.450Z,-0.76
2022-12-18T21:56:45.277Z,-0.73
2022-12-18T21:59:23.449Z,-0.68
2022-12-18T22:01:51.839Z,-0.78
2022-12-18T22:04:20.011Z,-0.89
2022-12-18T22:06:48.587Z,-0.76
2022-12-18T22:09:18.767Z,-0.77
2022-12-18T22:11:46.268Z,-0.76
2022-12-18T22:14:14.954Z,-0.76
2022-12-18T22:16:44.568Z,-0.72
2022-12-18T22:19:12.437Z,-0.80
2022-12-18T22:21:43.973Z,-0.73
2022-12-18T22:24:15.270Z,-0.72
2022-12-18T22:26:42.934Z,-0.71
2022-12-18T22:29:33.394Z,-0.75
2022-12-18T22:32:01.617Z,-0.96
2022-12-18T22:34:28.735Z,-1.03
2022-12-18T22:36:56.072Z,-1.05
2022-12-18T22:39:26.676Z,-1.10
2022-12-18T22:41:55.917Z,-1.24
2022-12-18T22:44:25.782Z,-1.18
2022-12-18T22:47:06.640Z,-1.27
2022-12-18T22:49:35.318Z,-1.22
2022-12-18T22:52:03.963Z,-1.33
2022-12-18T22:54:30.994Z,-1.35
2022-12-18T22:56:57.998Z,-1.41
2022-12-18T22:59:25.118Z,-1.44
2022-12-18T23:01:54.510Z,-1.40
2022-12-18T23:04:35.957Z,-1.37
2022-12-18T23:07:05.212Z,-1.44
2022-12-18T23:09:32.839Z,-1.52
2022-12-18T23:11:59.816Z,-1.55
2022-12-18T23:14:27.711Z,-1.54
2022-12-18T23:16:54.564Z,-1.62
2022-12-18T23:19:22.672Z,-1.68
2022-12-18T23:21:51.365Z,-1.77
2022-12-18T23:24:18.454Z,-1.85
2022-12-18T23:26:45.279Z,-1.90
2022-12-18T23:29:12.164Z,-1.87
2022-12-18T23:31:40.010Z,-1.87
2022-12-18T23:34:08.063Z,-1.89
2022-12-18T23:36:45.236Z,-1.87
2022-12-18T23:39:20.889Z,-1.93
2022-12-18T23:42:00.817Z,-1.99
2022-12-18T23:44:28.268Z,-1.99
2022-12-18T23:46:55.542Z,-2.06
2022-12-18T23:49:22.494Z,-2.03
2022-12-18T23:51:49.763Z,-1.99
2022-12-18T23:54:16.674Z,-2.04
2022-12-18T23:56:43.507Z,-2.09
2022-12-18T23:59:10.586Z,-2.13
